Accueil
METAR-TAF:

METAR-TAF

Aéroports :

Paderborn-Lippstadt, Allemagne

latitude: 51-37N, longitude: 008-37E, altitude: 213 m

Observation

Le bulletin a été fait il y a 37 minutes, à 15:50 UTC
Vent 2 kt de direction variable
Température 7°C
Humidité 70%
Pression 1021 hPa
Visibilité 10 km ou plus
pas de nuages en-dessous de 1500 mètres et pas de cumulonimbus.

METAR: EDLP 281550Z VRB02KT CAVOK 07/02 Q1021

Heure: 17:27 (16:27 UTC)

Prévision

Le bulletin a été fait il y a 5 heures et 27 minutes, à 11:00 UTC
Prévision valable du 28 à 12 UTC au 29 à 12 UTC
Vent 4 kt de ouest
Visibilité 10 km ou plus
Nuages épars à une hauteur de 1500 ft
Evoluant progressivement
du 28 à 17 UTC au 28 à 20 UTC
Vent 6 kt de sud
Evoluant progressivement
du 29 à 04 UTC au 29 à 07 UTC
Vent 11 kt de sud

TAF: EDLP 281100Z 2812/2912 26004KT 9999 SCT015 BECMG 2817/2820 17006KT BECMG 2904/2907 17011KT

Observations et prévisions météorologiques de plus de 4000 aéroports (messages METAR et TAF).

Les stations disponibles sont représentées par des disques jaunes et rouges sur la carte.

Passer la souris dessus pour voir le nom de la station.

Cliquer dessus pour voir les observations et prévisions météorologiques.

Pour changer de carte: cliquez sur les boutons verts avec une croix noire pour zoomer, sur le bouton vert avec un tiret pour effectuer un zoom arrière, ou sur les flèches vertes pour les cartes adjacentes.


METAR-TAF: